sensor_id;sensor_type;location;lat;lon;timestamp;temperature;humidity
6210;DHT22;3138;52.550;13.148;2022-10-15T00:01:10;13.30;99.90
6210;DHT22;3138;52.550;13.148;2022-10-15T00:03:37;13.30;99.90
6210;DHT22;3138;52.550;13.148;2022-10-15T00:06:06;13.30;99.90
6210;DHT22;3138;52.550;13.148;2022-10-15T00:08:33;13.30;99.90
6210;DHT22;3138;52.550;13.148;2022-10-15T00:11:07;13.30;99.90
6210;DHT22;3138;52.550;13.148;2022-10-15T00:13:34;13.20;99.90
6210;DHT22;3138;52.550;13.148;2022-10-15T00:16:02;13.20;99.90
6210;DHT22;3138;52.550;13.148;2022-10-15T00:18:29;13.20;99.90
6210;DHT22;3138;52.550;13.148;2022-10-15T00:20:56;13.20;99.90
6210;DHT22;3138;52.550;13.148;2022-10-15T00:23:23;13.10;99.90
6210;DHT22;3138;52.550;13.148;2022-10-15T00:26:00;13.10;99.90
6210;DHT22;3138;52.550;13.148;2022-10-15T00:28:30;13.10;99.90
6210;DHT22;3138;52.550;13.148;2022-10-15T00:31:01;13.10;99.90
6210;DHT22;3138;52.550;13.148;2022-10-15T00:33:28;13.10;99.90
6210;DHT22;3138;52.550;13.148;2022-10-15T00:35:59;13.10;99.90
6210;DHT22;3138;52.550;13.148;2022-10-15T00:38:26;13.10;99.90
6210;DHT22;3138;52.550;13.148;2022-10-15T00:40:53;13.10;99.90
6210;DHT22;3138;52.550;13.148;2022-10-15T00:43:41;13.10;99.90
6210;DHT22;3138;52.550;13.148;2022-10-15T00:46:16;13.10;99.90
6210;DHT22;3138;52.550;13.148;2022-10-15T00:48:45;13.10;99.90
6210;DHT22;3138;52.550;13.148;2022-10-15T00:51:14;13.10;99.90
6210;DHT22;3138;52.550;13.148;2022-10-15T00:53:42;13.10;99.90
6210;DHT22;3138;52.550;13.148;2022-10-15T00:56:08;13.10;99.90
6210;DHT22;3138;52.550;13.148;2022-10-15T00:58:35;13.10;99.90
6210;DHT22;3138;52.550;13.148;2022-10-15T01:01:04;13.10;99.90
6210;DHT22;3138;52.550;13.148;2022-10-15T01:03:30;13.10;99.90
6210;DHT22;3138;52.550;13.148;2022-10-15T01:06:00;13.00;99.90
6210;DHT22;3138;52.550;13.148;2022-10-15T01:08:26;13.10;99.90
6210;DHT22;3138;52.550;13.148;2022-10-15T01:11:09;13.00;99.90
6210;DHT22;3138;52.550;13.148;2022-10-15T01:13:47;13.00;99.90
6210;DHT22;3138;52.550;13.148;2022-10-15T01:16:23;13.10;99.90
6210;DHT22;3138;52.550;13.148;2022-10-15T01:18:58;13.10;99.90
6210;DHT22;3138;52.550;13.148;2022-10-15T01:21:32;13.10;99.90
6210;DHT22;3138;52.550;13.148;2022-10-15T01:24:34;13.10;99.90
6210;DHT22;3138;52.550;13.148;2022-10-15T01:27:26;13.10;99.90
6210;DHT22;3138;52.550;13.148;2022-10-15T01:30:26;13.10;99.90
6210;DHT22;3138;52.550;13.148;2022-10-15T01:33:08;13.10;99.90
6210;DHT22;3138;52.550;13.148;2022-10-15T01:35:44;13.10;99.90
6210;DHT22;3138;52.550;13.148;2022-10-15T01:38:20;13.10;99.90
6210;DHT22;3138;52.550;13.148;2022-10-15T01:40:50;13.10;99.90
6210;DHT22;3138;52.550;13.148;2022-10-15T01:43:23;13.10;99.90
6210;DHT22;3138;52.550;13.148;2022-10-15T01:45:56;13.20;99.90
6210;DHT22;3138;52.550;13.148;2022-10-15T01:48:26;13.10;99.90
6210;DHT22;3138;52.550;13.148;2022-10-15T01:50:57;13.10;99.90
6210;DHT22;3138;52.550;13.148;2022-10-15T01:53:26;13.10;99.90
6210;DHT22;3138;52.550;13.148;2022-10-15T01:55:55;13.10;99.90
6210;DHT22;3138;52.550;13.148;2022-10-15T01:58:23;13.10;99.90
6210;DHT22;3138;52.550;13.148;2022-10-15T02:00:53;13.10;99.90
6210;DHT22;3138;52.550;13.148;2022-10-15T02:03:21;13.10;99.90
6210;DHT22;3138;52.550;13.148;2022-10-15T02:05:52;13.10;99.90
6210;DHT22;3138;52.550;13.148;2022-10-15T02:08:30;13.10;99.90
6210;DHT22;3138;52.550;13.148;2022-10-15T02:11:04;13.00;99.90
6210;DHT22;3138;52.550;13.148;2022-10-15T02:13:38;13.00;99.90
6210;DHT22;3138;52.550;13.148;2022-10-15T02:16:12;13.00;99.90
6210;DHT22;3138;52.550;13.148;2022-10-15T02:18:41;13.00;99.90
6210;DHT22;3138;52.550;13.148;2022-10-15T02:21:16;13.00;99.90
6210;DHT22;3138;52.550;13.148;2022-10-15T02:23:46;13.00;99.90
6210;DHT22;3138;52.550;13.148;2022-10-15T02:26:15;13.00;99.90
6210;DHT22;3138;52.550;13.148;2022-10-15T02:28:45;13.00;99.90
6210;DHT22;3138;52.550;13.148;2022-10-15T02:31:17;13.00;99.90
6210;DHT22;3138;52.550;13.148;2022-10-15T02:33:46;13.00;99.90
6210;DHT22;3138;52.550;13.148;2022-10-15T02:36:14;13.00;99.90
6210;DHT22;3138;52.550;13.148;2022-10-15T02:38:43;13.00;99.90
6210;DHT22;3138;52.550;13.148;2022-10-15T02:41:11;13.00;99.90
6210;DHT22;3138;52.550;13.148;2022-10-15T02:43:39;13.00;99.90
6210;DHT22;3138;52.550;13.148;2022-10-15T02:46:07;13.00;99.90
6210;DHT22;3138;52.550;13.148;2022-10-15T02:48:36;12.90;99.90
6210;DHT22;3138;52.550;13.148;2022-10-15T02:51:03;12.90;99.90
6210;DHT22;3138;52.550;13.148;2022-10-15T02:53:30;12.80;99.90
6210;DHT22;3138;52.550;13.148;2022-10-15T02:55:57;12.80;99.90
6210;DHT22;3138;52.550;13.148;2022-10-15T02:58:24;12.80;99.90
6210;DHT22;3138;52.550;13.148;2022-10-15T03:00:51;12.80;99.90
6210;DHT22;3138;52.550;13.148;2022-10-15T03:03:18;12.80;99.90
6210;DHT22;3138;52.550;13.148;2022-10-15T03:05:46;12.80;99.90
6210;DHT22;3138;52.550;13.148;2022-10-15T03:08:12;12.80;99.90
6210;DHT22;3138;52.550;13.148;2022-10-15T03:10:39;12.80;99.90
6210;DHT22;3138;52.550;13.148;2022-10-15T03:13:06;12.90;99.90
6210;DHT22;3138;52.550;13.148;2022-10-15T03:15:36;12.90;99.90
6210;DHT22;3138;52.550;13.148;2022-10-15T03:18:03;12.80;99.90
6210;DHT22;3138;52.550;13.148;2022-10-15T03:20:29;12.90;99.90
6210;DHT22;3138;52.550;13.148;2022-10-15T03:22:57;12.90;99.90
6210;DHT22;3138;52.550;13.148;2022-10-15T03:25:24;12.90;99.90
6210;DHT22;3138;52.550;13.148;2022-10-15T03:27:51;12.80;99.90
6210;DHT22;3138;52.550;13.148;2022-10-15T03:30:18;12.80;99.90
6210;DHT22;3138;52.550;13.148;2022-10-15T03:32:45;12.80;99.90
6210;DHT22;3138;52.550;13.148;2022-10-15T03:35:12;12.90;99.90
6210;DHT22;3138;52.550;13.148;2022-10-15T03:37:39;12.80;99.90
6210;DHT22;3138;52.550;13.148;2022-10-15T03:40:08;12.80;99.90
6210;DHT22;3138;52.550;13.148;2022-10-15T03:42:35;12.80;99.90
6210;DHT22;3138;52.550;13.148;2022-10-15T03:45:01;12.80;99.90
6210;DHT22;3138;52.550;13.148;2022-10-15T03:47:28;12.80;99.90
6210;DHT22;3138;52.550;13.148;2022-10-15T03:49:55;12.70;99.90
6210;DHT22;3138;52.550;13.148;2022-10-15T03:52:21;12.60;99.90
6210;DHT22;3138;52.550;13.148;2022-10-15T03:54:48;12.60;99.90
6210;DHT22;3138;52.550;13.148;2022-10-15T03:57:16;12.60;99.90
6210;DHT22;3138;52.550;13.148;2022-10-15T03:59:43;12.50;99.90
6210;DHT22;3138;52.550;13.148;2022-10-15T04:02:09;12.40;99.90
6210;DHT22;3138;52.550;13.148;2022-10-15T04:04:36;12.30;99.90
6210;DHT22;3138;52.550;13.148;2022-10-15T04:07:03;12.30;99.90
6210;DHT22;3138;52.550;13.148;2022-10-15T04:09:30;12.20;99.90
6210;DHT22;3138;52.550;13.148;2022-10-15T04:11:56;12.20;99.90
6210;DHT22;3138;52.550;13.148;2022-10-15T04:14:25;12.10;99.90
6210;DHT22;3138;52.550;13.148;2022-10-15T04:16:51;12.10;99.90
6210;DHT22;3138;52.550;13.148;2022-10-15T04:19:18;12.10;99.90
6210;DHT22;3138;52.550;13.148;2022-10-15T04:21:45;12.00;99.90
6210;DHT22;3138;52.550;13.148;2022-10-15T04:24:11;12.00;99.90
6210;DHT22;3138;52.550;13.148;2022-10-15T04:26:38;12.00;99.90
6210;DHT22;3138;52.550;13.148;2022-10-15T04:29:05;12.10;99.90
6210;DHT22;3138;52.550;13.148;2022-10-15T04:31:33;12.10;99.90
6210;DHT22;3138;52.550;13.148;2022-10-15T04:33:59;12.10;99.90
6210;DHT22;3138;52.550;13.148;2022-10-15T04:36:26;12.10;99.90
6210;DHT22;3138;52.550;13.148;2022-10-15T04:38:53;12.10;99.90
6210;DHT22;3138;52.550;13.148;2022-10-15T04:41:20;12.10;99.90
6210;DHT22;3138;52.550;13.148;2022-10-15T04:43:46;12.20;99.90
6210;DHT22;3138;52.550;13.148;2022-10-15T04:46:13;12.40;99.90
6210;DHT22;3138;52.550;13.148;2022-10-15T04:48:41;12.50;99.90
6210;DHT22;3138;52.550;13.148;2022-10-15T04:51:11;12.50;99.90
6210;DHT22;3138;52.550;13.148;2022-10-15T04:53:38;12.50;99.90
6210;DHT22;3138;52.550;13.148;2022-10-15T04:56:06;12.50;99.90
6210;DHT22;3138;52.550;13.148;2022-10-15T04:58:35;12.50;99.90
6210;DHT22;3138;52.550;13.148;2022-10-15T05:01:03;12.40;99.90
6210;DHT22;3138;52.550;13.148;2022-10-15T05:03:31;12.40;99.90
6210;DHT22;3138;52.550;13.148;2022-10-15T05:06:04;12.10;99.90
6210;DHT22;3138;52.550;13.148;2022-10-15T05:08:32;12.00;99.90
6210;DHT22;3138;52.550;13.148;2022-10-15T05:11:00;11.90;99.90
6210;DHT22;3138;52.550;13.148;2022-10-15T05:13:28;11.80;99.90
6210;DHT22;3138;52.550;13.148;2022-10-15T05:15:55;11.70;99.90
6210;DHT22;3138;52.550;13.148;2022-10-15T05:18:21;11.70;99.90
6210;DHT22;3138;52.550;13.148;2022-10-15T05:20:48;11.80;99.90
6210;DHT22;3138;52.550;13.148;2022-10-15T05:23:16;11.80;99.90
6210;DHT22;3138;52.550;13.148;2022-10-15T05:25:43;11.70;99.90
6210;DHT22;3138;52.550;13.148;2022-10-15T05:28:09;11.60;99.90
6210;DHT22;3138;52.550;13.148;2022-10-15T05:30:36;11.50;99.90
6210;DHT22;3138;52.550;13.148;2022-10-15T05:33:03;11.30;99.90
6210;DHT22;3138;52.550;13.148;2022-10-15T05:35:29;11.20;99.90
6210;DHT22;3138;52.550;13.148;2022-10-15T05:37:56;11.00;99.90
6210;DHT22;3138;52.550;13.148;2022-10-15T05:40:24;11.00;99.90
6210;DHT22;3138;52.550;13.148;2022-10-15T05:42:51;10.90;99.90
6210;DHT22;3138;52.550;13.148;2022-10-15T05:45:18;10.80;99.90
6210;DHT22;3138;52.550;13.148;2022-10-15T05:50:13;10.80;99.90
6210;DHT22;3138;52.550;13.148;2022-10-15T05:52:40;10.70;99.90
6210;DHT22;3138;52.550;13.148;2022-10-15T05:55:07;10.70;99.90
6210;DHT22;3138;52.550;13.148;2022-10-15T05:57:35;10.70;99.90
6210;DHT22;3138;52.550;13.148;2022-10-15T06:00:03;10.70;99.90
6210;DHT22;3138;52.550;13.148;2022-10-15T06:02:30;10.70;99.90
6210;DHT22;3138;52.550;13.148;2022-10-15T06:04:56;10.60;99.90
6210;DHT22;3138;52.550;13.148;2022-10-15T06:07:23;10.70;99.90
6210;DHT22;3138;52.550;13.148;2022-10-15T06:09:51;10.60;99.90
6210;DHT22;3138;52.550;13.148;2022-10-15T06:12:17;10.80;99.90
6210;DHT22;3138;52.550;13.148;2022-10-15T06:14:45;10.80;99.90
6210;DHT22;3138;52.550;13.148;2022-10-15T06:17:12;10.90;99.90
6210;DHT22;3138;52.550;13.148;2022-10-15T06:19:39;11.10;99.90
6210;DHT22;3138;52.550;13.148;2022-10-15T06:22:05;11.30;99.90
6210;DHT22;3138;52.550;13.148;2022-10-15T06:24:32;11.30;99.90
6210;DHT22;3138;52.550;13.148;2022-10-15T06:26:59;11.40;99.90
6210;DHT22;3138;52.550;13.148;2022-10-15T06:29:25;11.40;99.90
6210;DHT22;3138;52.550;13.148;2022-10-15T06:31:53;11.50;99.90
6210;DHT22;3138;52.550;13.148;2022-10-15T06:34:20;11.40;99.90
6210;DHT22;3138;52.550;13.148;2022-10-15T06:36:47;11.50;99.90
6210;DHT22;3138;52.550;13.148;2022-10-15T06:39:13;11.50;99.90
6210;DHT22;3138;52.550;13.148;2022-10-15T06:41:40;11.60;99.90
6210;DHT22;3138;52.550;13.148;2022-10-15T06:44:07;11.80;99.90
6210;DHT22;3138;52.550;13.148;2022-10-15T06:46:34;12.10;99.90
6210;DHT22;3138;52.550;13.148;2022-10-15T06:49:03;12.30;99.90
6210;DHT22;3138;52.550;13.148;2022-10-15T06:51:30;12.60;99.90
6210;DHT22;3138;52.550;13.148;2022-10-15T06:53:56;12.80;99.90
6210;DHT22;3138;52.550;13.148;2022-10-15T06:56:23;12.90;99.90
6210;DHT22;3138;52.550;13.148;2022-10-15T06:58:50;13.00;99.90
6210;DHT22;3138;52.550;13.148;2022-10-15T07:01:16;13.10;99.90
6210;DHT22;3138;52.550;13.148;2022-10-15T07:03:43;13.20;99.90
6210;DHT22;3138;52.550;13.148;2022-10-15T07:06:11;13.30;99.90
6210;DHT22;3138;52.550;13.148;2022-10-15T07:08:38;13.40;99.90
6210;DHT22;3138;52.550;13.148;2022-10-15T07:11:05;13.40;99.90
6210;DHT22;3138;52.550;13.148;2022-10-15T07:13:33;13.50;99.90
6210;DHT22;3138;52.550;13.148;2022-10-15T07:16:03;13.50;99.90
6210;DHT22;3138;52.550;13.148;2022-10-15T07:18:30;13.60;99.90
6210;DHT22;3138;52.550;13.148;2022-10-15T07:20:57;13.50;99.90
6210;DHT22;3138;52.550;13.148;2022-10-15T07:23:25;13.50;99.90
6210;DHT22;3138;52.550;13.148;2022-10-15T07:25:52;13.50;99.90
6210;DHT22;3138;52.550;13.148;2022-10-15T07:28:19;13.60;99.90
6210;DHT22;3138;52.550;13.148;2022-10-15T07:30:46;13.70;99.90
6210;DHT22;3138;52.550;13.148;2022-10-15T07:33:12;13.70;99.90
6210;DHT22;3138;52.550;13.148;2022-10-15T07:35:39;13.80;99.90
6210;DHT22;3138;52.550;13.148;2022-10-15T07:38:06;14.00;99.90
6210;DHT22;3138;52.550;13.148;2022-10-15T07:40:34;14.30;99.90
6210;DHT22;3138;52.550;13.148;2022-10-15T07:43:00;14.60;99.90
6210;DHT22;3138;52.550;13.148;2022-10-15T07:45:27;14.60;99.90
6210;DHT22;3138;52.550;13.148;2022-10-15T07:47:54;14.70;99.90
6210;DHT22;3138;52.550;13.148;2022-10-15T07:50:21;14.70;99.90
6210;DHT22;3138;52.550;13.148;2022-10-15T07:52:47;14.80;99.90
6210;DHT22;3138;52.550;13.148;2022-10-15T07:55:14;14.80;99.90
6210;DHT22;3138;52.550;13.148;2022-10-15T07:57:43;14.80;99.90
6210;DHT22;3138;52.550;13.148;2022-10-15T08:00:10;14.80;99.90
6210;DHT22;3138;52.550;13.148;2022-10-15T08:02:37;14.90;99.90
6210;DHT22;3138;52.550;13.148;2022-10-15T08:05:04;15.00;99.90
6210;DHT22;3138;52.550;13.148;2022-10-15T08:07:31;15.20;99.90
6210;DHT22;3138;52.550;13.148;2022-10-15T08:09:58;15.30;99.90
6210;DHT22;3138;52.550;13.148;2022-10-15T08:12:25;15.30;99.90
6210;DHT22;3138;52.550;13.148;2022-10-15T08:14:53;15.40;99.90
6210;DHT22;3138;52.550;13.148;2022-10-15T08:17:19;15.40;99.90
6210;DHT22;3138;52.550;13.148;2022-10-15T08:19:46;15.50;99.90
6210;DHT22;3138;52.550;13.148;2022-10-15T08:22:13;15.40;99.90
6210;DHT22;3138;52.550;13.148;2022-10-15T08:24:39;15.60;99.90
6210;DHT22;3138;52.550;13.148;2022-10-15T08:27:06;15.80;99.90
6210;DHT22;3138;52.550;13.148;2022-10-15T08:29:33;15.90;99.90
6210;DHT22;3138;52.550;13.148;2022-10-15T08:32:01;16.10;99.90
6210;DHT22;3138;52.550;13.148;2022-10-15T08:34:28;16.10;99.90
6210;DHT22;3138;52.550;13.148;2022-10-15T08:36:54;16.20;99.90
6210;DHT22;3138;52.550;13.148;2022-10-15T08:39:21;16.30;99.90
6210;DHT22;3138;52.550;13.148;2022-10-15T08:41:49;16.20;99.90
6210;DHT22;3138;52.550;13.148;2022-10-15T08:44:21;16.10;99.90
6210;DHT22;3138;52.550;13.148;2022-10-15T08:46:51;16.20;99.90
6210;DHT22;3138;52.550;13.148;2022-10-15T08:49:29;16.20;99.90
6210;DHT22;3138;52.550;13.148;2022-10-15T08:52:06;16.40;99.90
6210;DHT22;3138;52.550;13.148;2022-10-15T08:54:35;16.50;99.90
6210;DHT22;3138;52.550;13.148;2022-10-15T08:57:10;16.50;99.90
6210;DHT22;3138;52.550;13.148;2022-10-15T08:59:47;16.70;99.90
6210;DHT22;3138;52.550;13.148;2022-10-15T09:02:17;16.70;99.90
6210;DHT22;3138;52.550;13.148;2022-10-15T09:04:54;16.50;99.90
6210;DHT22;3138;52.550;13.148;2022-10-15T09:07:30;16.50;99.90
6210;DHT22;3138;52.550;13.148;2022-10-15T09:10:08;16.50;99.90
6210;DHT22;3138;52.550;13.148;2022-10-15T09:12:45;16.70;99.90
6210;DHT22;3138;52.550;13.148;2022-10-15T09:15:16;16.70;99.90
6210;DHT22;3138;52.550;13.148;2022-10-15T09:17:46;16.80;99.90
6210;DHT22;3138;52.550;13.148;2022-10-15T09:20:17;16.90;99.90
6210;DHT22;3138;52.550;13.148;2022-10-15T09:22:44;16.90;99.90
6210;DHT22;3138;52.550;13.148;2022-10-15T09:25:15;16.90;99.90
6210;DHT22;3138;52.550;13.148;2022-10-15T09:27:42;17.00;99.90
6210;DHT22;3138;52.550;13.148;2022-10-15T09:30:22;17.10;99.90
6210;DHT22;3138;52.550;13.148;2022-10-15T09:32:57;17.20;99.90
6210;DHT22;3138;52.550;13.148;2022-10-15T09:35:28;17.00;99.90
6210;DHT22;3138;52.550;13.148;2022-10-15T09:38:04;16.90;99.90
6210;DHT22;3138;52.550;13.148;2022-10-15T09:40:47;16.90;99.90
6210;DHT22;3138;52.550;13.148;2022-10-15T10:03:32;17.50;99.90
6210;DHT22;3138;52.550;13.148;2022-10-15T10:06:04;17.70;99.90
6210;DHT22;3138;52.550;13.148;2022-10-15T10:08:34;17.70;99.90
6210;DHT22;3138;52.550;13.148;2022-10-15T10:11:07;17.80;99.90
6210;DHT22;3138;52.550;13.148;2022-10-15T10:13:38;17.80;99.90
6210;DHT22;3138;52.550;13.148;2022-10-15T10:16:08;18.00;99.90
6210;DHT22;3138;52.550;13.148;2022-10-15T10:18:37;17.80;99.90
6210;DHT22;3138;52.550;13.148;2022-10-15T10:21:06;17.70;99.90
6210;DHT22;3138;52.550;13.148;2022-10-15T10:23:38;17.60;99.90
6210;DHT22;3138;52.550;13.148;2022-10-15T10:26:07;17.70;99.90
6210;DHT22;3138;52.550;13.148;2022-10-15T10:28:36;17.80;99.90
6210;DHT22;3138;52.550;13.148;2022-10-15T10:31:07;17.90;99.90
6210;DHT22;3138;52.550;13.148;2022-10-15T10:33:42;17.90;99.90
6210;DHT22;3138;52.550;13.148;2022-10-15T10:36:23;17.90;99.90
6210;DHT22;3138;52.550;13.148;2022-10-15T10:38:55;17.70;99.90
6210;DHT22;3138;52.550;13.148;2022-10-15T10:41:25;17.70;99.90
6210;DHT22;3138;52.550;13.148;2022-10-15T10:44:19;17.80;99.90
6210;DHT22;3138;52.550;13.148;2022-10-15T10:47:00;17.80;99.90
6210;DHT22;3138;52.550;13.148;2022-10-15T10:49:30;17.80;99.90
6210;DHT22;3138;52.550;13.148;2022-10-15T10:51:58;17.80;99.90
6210;DHT22;3138;52.550;13.148;2022-10-15T10:54:25;17.80;99.90
6210;DHT22;3138;52.550;13.148;2022-10-15T10:56:53;17.70;99.90
6210;DHT22;3138;52.550;13.148;2022-10-15T10:59:26;17.80;99.90
6210;DHT22;3138;52.550;13.148;2022-10-15T11:01:53;17.90;99.90
6210;DHT22;3138;52.550;13.148;2022-10-15T11:04:24;18.10;99.90
6210;DHT22;3138;52.550;13.148;2022-10-15T11:06:57;18.20;99.90
6210;DHT22;3138;52.550;13.148;2022-10-15T11:09:41;18.10;99.90
6210;DHT22;3138;52.550;13.148;2022-10-15T11:12:27;18.10;99.90
6210;DHT22;3138;52.550;13.148;2022-10-15T11:15:05;18.00;99.90
6210;DHT22;3138;52.550;13.148;2022-10-15T11:17:45;18.10;99.90
6210;DHT22;3138;52.550;13.148;2022-10-15T11:20:21;18.40;99.90
6210;DHT22;3138;52.550;13.148;2022-10-15T11:22:58;18.60;99.90
6210;DHT22;3138;52.550;13.148;2022-10-15T11:25:33;18.70;99.90
6210;DHT22;3138;52.550;13.148;2022-10-15T11:28:15;18.70;99.90
6210;DHT22;3138;52.550;13.148;2022-10-15T11:30:49;18.70;99.90
6210;DHT22;3138;52.550;13.148;2022-10-15T11:33:39;18.90;99.90
6210;DHT22;3138;52.550;13.148;2022-10-15T11:36:22;18.80;99.90
6210;DHT22;3138;52.550;13.148;2022-10-15T11:38:55;19.00;99.90
6210;DHT22;3138;52.550;13.148;2022-10-15T11:41:34;18.70;99.90
6210;DHT22;3138;52.550;13.148;2022-10-15T11:44:21;18.80;99.90
6210;DHT22;3138;52.550;13.148;2022-10-15T11:47:02;18.80;99.90
6210;DHT22;3138;52.550;13.148;2022-10-15T11:49:38;18.70;99.90
6210;DHT22;3138;52.550;13.148;2022-10-15T11:52:18;18.80;99.90
6210;DHT22;3138;52.550;13.148;2022-10-15T11:54:58;18.80;99.90
6210;DHT22;3138;52.550;13.148;2022-10-15T11:57:29;18.80;99.90
6210;DHT22;3138;52.550;13.148;2022-10-15T12:00:00;18.90;99.90
6210;DHT22;3138;52.550;13.148;2022-10-15T12:02:31;18.90;99.90
6210;DHT22;3138;52.550;13.148;2022-10-15T12:05:01;18.90;99.90
6210;DHT22;3138;52.550;13.148;2022-10-15T12:07:33;18.80;99.90
6210;DHT22;3138;52.550;13.148;2022-10-15T12:10:07;19.20;99.90
6210;DHT22;3138;52.550;13.148;2022-10-15T12:12:39;19.30;99.90
6210;DHT22;3138;52.550;13.148;2022-10-15T12:15:19;19.20;99.90
6210;DHT22;3138;52.550;13.148;2022-10-15T12:17:52;19.10;99.90
6210;DHT22;3138;52.550;13.148;2022-10-15T12:20:22;18.80;99.90
6210;DHT22;3138;52.550;13.148;2022-10-15T12:22:57;18.90;99.90
6210;DHT22;3138;52.550;13.148;2022-10-15T12:25:41;18.90;99.90
6210;DHT22;3138;52.550;13.148;2022-10-15T12:28:13;18.80;99.90
6210;DHT22;3138;52.550;13.148;2022-10-15T12:30:42;18.60;99.90
6210;DHT22;3138;52.550;13.148;2022-10-15T12:33:31;18.50;99.90
6210;DHT22;3138;52.550;13.148;2022-10-15T12:36:00;18.60;99.90
6210;DHT22;3138;52.550;13.148;2022-10-15T12:38:30;18.60;99.90
6210;DHT22;3138;52.550;13.148;2022-10-15T12:41:03;18.60;99.90
6210;DHT22;3138;52.550;13.148;2022-10-15T12:43:32;18.70;99.90
6210;DHT22;3138;52.550;13.148;2022-10-15T12:46:02;18.60;99.90
6210;DHT22;3138;52.550;13.148;2022-10-15T12:48:37;18.70;99.90
6210;DHT22;3138;52.550;13.148;2022-10-15T12:51:37;18.60;99.90
6210;DHT22;3138;52.550;13.148;2022-10-15T13:00:38;18.40;99.90
6210;DHT22;3138;52.550;13.148;2022-10-15T13:03:28;18.40;99.90
6210;DHT22;3138;52.550;13.148;2022-10-15T13:06:15;18.30;99.90
6210;DHT22;3138;52.550;13.148;2022-10-15T13:08:50;18.30;99.90
6210;DHT22;3138;52.550;13.148;2022-10-15T13:11:20;18.30;99.90
6210;DHT22;3138;52.550;13.148;2022-10-15T13:13:49;18.30;99.90
6210;DHT22;3138;52.550;13.148;2022-10-15T13:16:18;18.50;99.90
6210;DHT22;3138;52.550;13.148;2022-10-15T13:18:48;18.60;99.90
6210;DHT22;3138;52.550;13.148;2022-10-15T13:21:17;18.70;99.90
6210;DHT22;3138;52.550;13.148;2022-10-15T13:23:46;18.70;99.90
6210;DHT22;3138;52.550;13.148;2022-10-15T13:26:18;18.70;99.90
6210;DHT22;3138;52.550;13.148;2022-10-15T13:28:46;18.70;99.90
6210;DHT22;3138;52.550;13.148;2022-10-15T13:31:18;18.60;99.90
6210;DHT22;3138;52.550;13.148;2022-10-15T13:33:49;18.70;99.90
6210;DHT22;3138;52.550;13.148;2022-10-15T13:36:20;18.50;99.90
6210;DHT22;3138;52.550;13.148;2022-10-15T13:38:57;18.60;99.90
6210;DHT22;3138;52.550;13.148;2022-10-15T13:41:26;18.70;99.90
6210;DHT22;3138;52.550;13.148;2022-10-15T13:43:54;18.90;99.90
6210;DHT22;3138;52.550;13.148;2022-10-15T13:46:23;19.00;99.90
6210;DHT22;3138;52.550;13.148;2022-10-15T13:48:56;19.00;99.90
6210;DHT22;3138;52.550;13.148;2022-10-15T13:51:31;19.00;99.90
6210;DHT22;3138;52.550;13.148;2022-10-15T13:53:59;18.90;99.90
6210;DHT22;3138;52.550;13.148;2022-10-15T13:56:28;18.90;99.90
6210;DHT22;3138;52.550;13.148;2022-10-15T13:58:56;18.80;99.90
6210;DHT22;3138;52.550;13.148;2022-10-15T14:01:24;18.80;99.90
6210;DHT22;3138;52.550;13.148;2022-10-15T14:03:53;18.80;99.90
6210;DHT22;3138;52.550;13.148;2022-10-15T14:06:21;18.80;99.90
6210;DHT22;3138;52.550;13.148;2022-10-15T14:08:51;18.70;99.90
6210;DHT22;3138;52.550;13.148;2022-10-15T14:11:18;18.50;99.90
6210;DHT22;3138;52.550;13.148;2022-10-15T14:13:46;18.50;99.90
6210;DHT22;3138;52.550;13.148;2022-10-15T14:16:17;18.50;99.90
6210;DHT22;3138;52.550;13.148;2022-10-15T14:18:48;18.40;99.90
6210;DHT22;3138;52.550;13.148;2022-10-15T14:21:20;18.30;99.90
6210;DHT22;3138;52.550;13.148;2022-10-15T14:24:02;18.30;99.90
6210;DHT22;3138;52.550;13.148;2022-10-15T14:26:30;18.30;99.90
6210;DHT22;3138;52.550;13.148;2022-10-15T14:28:57;18.20;99.90
6210;DHT22;3138;52.550;13.148;2022-10-15T14:31:30;18.20;99.90
6210;DHT22;3138;52.550;13.148;2022-10-15T14:33:57;18.10;99.90
6210;DHT22;3138;52.550;13.148;2022-10-15T14:36:26;18.00;99.90
6210;DHT22;3138;52.550;13.148;2022-10-15T14:38:56;17.80;99.90
6210;DHT22;3138;52.550;13.148;2022-10-15T14:41:54;17.80;99.90
6210;DHT22;3138;52.550;13.148;2022-10-15T14:44:21;18.10;99.90
6210;DHT22;3138;52.550;13.148;2022-10-15T14:46:49;18.10;99.90
6210;DHT22;3138;52.550;13.148;2022-10-15T14:49:21;18.10;99.90
6210;DHT22;3138;52.550;13.148;2022-10-15T14:52:07;18.00;99.90
6210;DHT22;3138;52.550;13.148;2022-10-15T14:54:39;17.80;99.90
6210;DHT22;3138;52.550;13.148;2022-10-15T14:57:16;17.70;99.90
6210;DHT22;3138;52.550;13.148;2022-10-15T14:59:44;17.60;99.90
6210;DHT22;3138;52.550;13.148;2022-10-15T15:02:14;17.50;99.90
6210;DHT22;3138;52.550;13.148;2022-10-15T15:05:05;17.50;99.90
6210;DHT22;3138;52.550;13.148;2022-10-15T15:07:32;17.50;99.90
6210;DHT22;3138;52.550;13.148;2022-10-15T15:10:00;17.50;99.90
6210;DHT22;3138;52.550;13.148;2022-10-15T15:12:27;17.50;99.90
6210;DHT22;3138;52.550;13.148;2022-10-15T15:14:55;17.50;99.90
6210;DHT22;3138;52.550;13.148;2022-10-15T15:17:24;17.60;99.90
6210;DHT22;3138;52.550;13.148;2022-10-15T15:19:52;17.60;99.90
6210;DHT22;3138;52.550;13.148;2022-10-15T15:22:24;17.60;99.90
6210;DHT22;3138;52.550;13.148;2022-10-15T15:24:52;17.50;99.90
6210;DHT22;3138;52.550;13.148;2022-10-15T15:27:24;17.40;99.90
6210;DHT22;3138;52.550;13.148;2022-10-15T15:29:51;17.30;99.90
6210;DHT22;3138;52.550;13.148;2022-10-15T15:32:18;17.10;99.90
6210;DHT22;3138;52.550;13.148;2022-10-15T15:34:46;17.00;99.90
6210;DHT22;3138;52.550;13.148;2022-10-15T15:37:14;16.90;99.90
6210;DHT22;3138;52.550;13.148;2022-10-15T15:39:41;16.80;99.90
6210;DHT22;3138;52.550;13.148;2022-10-15T15:42:13;16.70;99.90
6210;DHT22;3138;52.550;13.148;2022-10-15T15:44:42;16.60;99.90
6210;DHT22;3138;52.550;13.148;2022-10-15T15:47:09;16.50;99.90
6210;DHT22;3138;52.550;13.148;2022-10-15T15:49:36;16.40;99.90
6210;DHT22;3138;52.550;13.148;2022-10-15T15:52:04;16.20;99.90
6210;DHT22;3138;52.550;13.148;2022-10-15T15:54:31;16.10;99.90
6210;DHT22;3138;52.550;13.148;2022-10-15T15:56:57;16.00;99.90
6210;DHT22;3138;52.550;13.148;2022-10-15T15:59:24;15.80;99.90
6210;DHT22;3138;52.550;13.148;2022-10-15T16:01:52;15.80;99.90
6210;DHT22;3138;52.550;13.148;2022-10-15T16:04:19;15.60;99.90
6210;DHT22;3138;52.550;13.148;2022-10-15T16:06:45;15.60;99.90
6210;DHT22;3138;52.550;13.148;2022-10-15T16:09:13;15.50;99.90
6210;DHT22;3138;52.550;13.148;2022-10-15T16:11:40;15.40;99.90
6210;DHT22;3138;52.550;13.148;2022-10-15T16:14:07;15.30;99.90
6210;DHT22;3138;52.550;13.148;2022-10-15T16:16:34;15.10;99.90
6210;DHT22;3138;52.550;13.148;2022-10-15T16:19:02;15.00;99.90
6210;DHT22;3138;52.550;13.148;2022-10-15T16:21:29;15.00;99.90
6210;DHT22;3138;52.550;13.148;2022-10-15T16:23:56;14.90;99.90
6210;DHT22;3138;52.550;13.148;2022-10-15T16:26:23;14.80;99.90
6210;DHT22;3138;52.550;13.148;2022-10-15T16:28:50;14.70;99.90
6210;DHT22;3138;52.550;13.148;2022-10-15T16:31:19;14.50;99.90
6210;DHT22;3138;52.550;13.148;2022-10-15T16:33:46;14.50;99.90